Time;durP1;ratioP1;P1;durP2;ratioP2;P2;SDS_P1;SDS_P2;PMS_P1;PMS_P2;Temp;Humidity;BMP_temperature;BMP_pressure;BME280_temperature;BME280_humidity;BME280_pressure;Samples;Min_cycle;Max_cycle;Signal;HPM_P1;HPM_P2
2022/04/10 00:02:20;;;;;;;8.20;5.03;;;7.80;1.00;;;;;;5071656;28;20202;-75
2022/04/10 00:04:47;;;;;;;12.40;8.83;;;7.60;1.00;;;;;;5071759;28;20206;-74
2022/04/10 00:07:15;;;;;;;10.50;7.17;;;7.60;1.00;;;;;;5070345;28;20206;-75
2022/04/10 00:09:42;;;;;;;11.87;7.27;;;7.50;1.00;;;;;;5071170;28;20627;-79
2022/04/10 00:12:09;;;;;;;20.03;8.70;;;7.60;1.00;;;;;;5071219;28;20613;-73
2022/04/10 00:14:37;;;;;;;9.53;7.17;;;7.50;1.00;;;;;;5071689;28;20226;-75
2022/04/10 00:17:05;;;;;;;8.80;6.53;;;7.50;1.00;;;;;;5071671;28;20198;-73
2022/04/10 00:19:32;;;;;;;8.83;5.87;;;7.40;1.00;;;;;;5071832;28;20202;-72
2022/04/10 00:21:59;;;;;;;6.53;5.60;;;7.40;1.00;;;;;;5071613;28;20620;-74
2022/04/10 00:24:28;;;;;;;7.77;6.20;;;7.30;1.00;;;;;;5070743;28;20267;-73
2022/04/10 00:26:55;;;;;;;6.60;5.13;;;7.30;1.00;;;;;;5071595;28;20210;-72
2022/04/10 00:29:22;;;;;;;5.23;4.17;;;7.30;1.00;;;;;;5071137;28;20198;-75
2022/04/10 00:31:49;;;;;;;5.07;4.57;;;7.30;1.00;;;;;;5071321;28;20234;-74
2022/04/10 00:34:16;;;;;;;6.93;4.60;;;7.30;1.00;;;;;;5070947;28;20286;-74
2022/04/10 00:36:43;;;;;;;8.27;6.13;;;7.30;1.00;;;;;;5071233;28;20203;-73
2022/04/10 00:39:10;;;;;;;6.43;4.77;;;7.30;1.00;;;;;;5070801;28;20577;-72
2022/04/10 00:41:38;;;;;;;5.73;4.43;;;7.20;1.00;;;;;;5071003;28;20618;-72
2022/04/10 00:44:08;;;;;;;8.47;5.70;;;7.20;1.00;;;;;;5070914;28;20214;-72
2022/04/10 00:46:35;;;;;;;5.40;4.70;;;7.10;1.00;;;;;;5071098;28;20213;-71
2022/04/10 00:49:02;;;;;;;11.33;4.67;;;7.00;1.00;;;;;;5071453;28;20323;-72
2022/04/10 00:51:43;;;;;;;7.63;4.70;;;7.10;1.00;;;;;;5070959;28;20201;-75
2022/04/10 00:54:12;;;;;;;7.43;4.23;;;7.00;1.00;;;;;;5070161;28;20701;-75
2022/04/10 00:56:40;;;;;;;6.57;4.53;;;7.10;1.00;;;;;;5071092;28;20565;-75
2022/04/10 00:59:07;;;;;;;9.37;4.83;;;7.10;1.00;;;;;;5070458;28;20205;-74
2022/04/10 01:01:35;;;;;;;6.30;4.50;;;7.10;1.00;;;;;;5070914;28;20564;-74
2022/04/10 01:04:03;;;;;;;7.27;4.50;;;7.10;1.00;;;;;;5071177;28;20750;-72
2022/04/10 01:06:33;;;;;;;7.53;4.93;;;6.90;1.00;;;;;;5071110;28;20255;-72
2022/04/10 01:09:00;;;;;;;8.93;4.63;;;7.00;1.00;;;;;;5070957;28;20248;-73
2022/04/10 01:11:27;;;;;;;6.03;4.80;;;7.10;1.00;;;;;;5070388;28;20275;-73
2022/04/10 01:13:56;;;;;;;7.03;4.63;;;7.00;1.00;;;;;;5070654;28;20210;-73
2022/04/10 01:16:23;;;;;;;6.10;4.33;;;7.00;1.00;;;;;;5070299;28;20279;-73
2022/04/10 01:18:51;;;;;;;5.93;4.13;;;7.00;1.00;;;;;;5070611;28;20261;-73
2022/04/10 01:21:25;;;;;;;6.73;4.63;;;7.00;1.00;;;;;;5070111;28;20206;-73
2022/04/10 01:23:54;;;;;;;4.83;3.53;;;6.90;1.00;;;;;;5070532;28;20207;-73
2022/04/10 01:26:22;;;;;;;7.47;4.87;;;6.90;1.00;;;;;;5070228;28;20256;-73
2022/04/10 01:29:00;;;;;;;4.63;3.63;;;7.00;1.00;;;;;;5070654;28;20272;-73
2022/04/10 01:31:29;;;;;;;7.97;6.33;;;7.00;1.00;;;;;;5069997;28;20615;-73
2022/04/10 01:33:58;;;;;;;4.93;3.70;;;7.00;1.00;;;;;;5070598;28;20348;-74
2022/04/10 01:36:26;;;;;;;5.67;3.83;;;6.80;1.00;;;;;;5069995;28;20300;-73
2022/04/10 01:38:56;;;;;;;6.83;4.30;;;6.70;1.00;;;;;;5070676;28;20254;-73
2022/04/10 01:41:24;;;;;;;7.00;3.87;;;6.70;1.00;;;;;;5070543;28;20202;-77
2022/04/10 01:43:52;;;;;;;7.40;4.47;;;6.70;1.00;;;;;;5070670;28;20208;-77
2022/04/10 01:46:20;;;;;;;8.43;5.00;;;6.60;1.00;;;;;;5070312;28;20202;-86
2022/04/10 01:48:47;;;;;;;5.53;4.03;;;6.60;1.00;;;;;;5071299;28;20206;-86
2022/04/10 01:51:14;;;;;;;5.67;4.90;;;6.60;1.00;;;;;;5070080;28;20198;-77
2022/04/10 01:53:41;;;;;;;9.27;4.73;;;6.60;1.00;;;;;;5070331;28;20198;-78
2022/04/10 01:56:10;;;;;;;5.93;3.73;;;6.50;1.00;;;;;;5069877;28;20234;-75
2022/04/10 01:58:38;;;;;;;7.03;3.60;;;6.50;1.00;;;;;;5070217;28;20218;-78
2022/04/10 02:01:06;;;;;;;8.90;4.83;;;6.50;1.00;;;;;;5070358;28;20202;-78
2022/04/10 02:03:34;;;;;;;5.83;4.43;;;6.50;1.00;;;;;;5070496;28;20210;-77
2022/04/10 02:06:01;;;;;;;7.73;4.50;;;6.50;1.00;;;;;;5070483;28;20259;-77
2022/04/10 02:08:28;;;;;;;8.90;6.07;;;6.50;1.00;;;;;;5069928;28;20684;-80
2022/04/10 02:10:55;;;;;;;5.10;4.20;;;6.40;1.00;;;;;;5070281;28;20678;-79
2022/04/10 02:13:24;;;;;;;10.17;5.37;;;6.30;1.00;;;;;;5070047;28;20203;-80
2022/04/10 02:15:51;;;;;;;6.17;4.80;;;6.40;1.00;;;;;;5070321;28;20292;-78
2022/04/10 02:18:18;;;;;;;6.53;4.03;;;6.30;1.00;;;;;;5069842;28;20210;-77
2022/04/10 02:20:45;;;;;;;6.47;4.10;;;6.30;1.00;;;;;;5069832;28;20267;-76
2022/04/10 02:23:12;;;;;;;6.00;5.37;;;6.30;1.00;;;;;;5069829;28;20202;-78
2022/04/10 02:25:39;;;;;;;6.27;4.07;;;6.30;1.00;;;;;;5070350;28;20202;-77
2022/04/10 02:28:07;;;;;;;5.37;4.40;;;6.30;1.00;;;;;;5069840;28;20208;-73
2022/04/10 02:30:35;;;;;;;5.97;4.33;;;6.20;1.00;;;;;;5071843;28;20251;-73
2022/04/10 02:33:02;;;;;;;5.43;4.10;;;6.10;1.00;;;;;;5073698;28;20202;-78
2022/04/10 02:35:29;;;;;;;6.53;4.23;;;6.10;1.00;;;;;;5073054;28;20234;-76
2022/04/10 02:37:56;;;;;;;12.80;4.63;;;6.00;1.00;;;;;;5073783;28;20202;-77
2022/04/10 02:40:23;;;;;;;8.33;4.80;;;6.00;1.00;;;;;;5073396;28;20206;-80
2022/04/10 02:42:50;;;;;;;6.13;5.03;;;5.90;1.00;;;;;;5073063;28;20214;-78
2022/04/10 02:45:17;;;;;;;9.77;5.20;;;6.00;1.00;;;;;;5052912;28;20215;-76
2022/04/10 02:47:46;;;;;;;7.93;5.10;;;6.00;1.00;;;;;;5053223;28;20202;-72
2022/04/10 02:50:13;;;;;;;11.27;4.27;;;6.00;1.00;;;;;;5052641;28;20245;-71
2022/04/10 02:52:40;;;;;;;10.80;4.50;;;6.00;1.00;;;;;;5053236;28;20249;-72
2022/04/10 02:55:08;;;;;;;5.93;3.93;;;6.00;1.00;;;;;;5052955;28;20321;-72
2022/04/10 02:57:35;;;;;;;5.67;4.00;;;6.00;1.00;;;;;;5053019;28;20215;-72
2022/04/10 03:00:04;;;;;;;4.57;4.10;;;6.00;1.00;;;;;;5053379;28;20233;-72
2022/04/10 03:02:31;;;;;;;7.27;4.87;;;6.00;1.00;;;;;;5053033;28;20234;-73
2022/04/10 03:04:59;;;;;;;7.37;5.23;;;6.00;1.00;;;;;;5052661;28;20215;-71
2022/04/10 03:07:26;;;;;;;8.90;6.67;;;5.90;1.00;;;;;;5052442;28;20698;-72
2022/04/10 03:09:53;;;;;;;4.47;3.50;;;5.90;1.00;;;;;;5052887;28;20199;-72
2022/04/10 03:12:20;;;;;;;6.90;3.83;;;5.80;1.00;;;;;;5052505;28;20202;-72
2022/04/10 03:14:47;;;;;;;6.27;4.67;;;5.70;1.00;;;;;;5052686;28;20203;-70
2022/04/10 03:17:14;;;;;;;6.57;4.00;;;5.70;1.00;;;;;;5052310;28;20203;-71
2022/04/10 03:19:41;;;;;;;6.83;4.10;;;5.70;1.00;;;;;;5053299;28;20206;-86
2022/04/10 03:22:09;;;;;;;5.30;4.23;;;5.60;1.00;;;;;;5052885;28;20202;-76
2022/04/10 03:24:36;;;;;;;3.73;3.33;;;5.30;1.00;;;;;;5053392;28;20273;-85
2022/04/10 03:27:03;;;;;;;5.20;3.67;;;5.20;1.00;;;;;;5053503;28;20203;-79
2022/04/10 03:29:31;;;;;;;5.80;3.93;;;5.20;1.00;;;;;;5052809;28;20261;-80
2022/04/10 03:31:58;;;;;;;5.03;4.07;;;5.30;1.00;;;;;;5052624;28;20252;-81
2022/04/10 03:34:25;;;;;;;4.63;3.30;;;5.30;1.00;;;;;;5052078;28;20616;-81
2022/04/10 03:36:52;;;;;;;5.63;3.90;;;5.30;1.00;;;;;;5052770;28;20230;-81
2022/04/10 03:39:20;;;;;;;6.03;3.20;;;5.40;1.00;;;;;;5052382;28;20207;-76
2022/04/10 03:41:47;;;;;;;4.77;3.27;;;5.40;1.00;;;;;;5052261;28;20206;-79
2022/04/10 03:44:14;;;;;;;8.13;3.57;;;5.40;1.00;;;;;;5051945;28;20245;-81
2022/04/10 03:46:41;;;;;;;7.67;4.10;;;5.40;1.00;;;;;;5052466;28;20203;-78
2022/04/10 03:49:08;;;;;;;5.40;4.63;;;5.40;1.00;;;;;;5052103;28;20247;-81
2022/04/10 03:51:35;;;;;;;5.40;3.77;;;5.30;1.00;;;;;;5052322;28;20203;-76
2022/04/10 03:54:02;;;;;;;6.17;4.67;;;5.30;1.00;;;;;;5052823;28;20203;-79
2022/04/10 03:56:31;;;;;;;4.23;3.10;;;5.40;1.00;;;;;;5052015;28;20242;-75
2022/04/10 03:58:57;;;;;;;6.20;4.47;;;5.30;1.00;;;;;;5051656;28;20218;-80
2022/04/10 04:01:24;;;;;;;5.97;3.87;;;5.20;1.00;;;;;;5051330;28;20265;-70
2022/04/10 04:03:51;;;;;;;5.67;3.73;;;5.10;1.00;;;;;;5051875;28;20206;-71
2022/04/10 04:06:18;;;;;;;6.87;3.77;;;5.10;1.00;;;;;;5051566;28;20272;-72
2022/04/10 04:08:45;;;;;;;3.67;2.83;;;5.00;1.00;;;;;;5051721;28;20595;-71
2022/04/10 04:11:12;;;;;;;6.00;2.80;;;4.80;1.00;;;;;;5051120;28;20245;-74
2022/04/10 04:13:41;;;;;;;4.37;2.93;;;4.80;1.00;;;;;;5051890;28;20268;-74
2022/04/10 04:16:08;;;;;;;6.80;3.03;;;4.80;1.00;;;;;;5050963;28;20288;-73
2022/04/10 04:18:35;;;;;;;4.80;3.37;;;4.90;1.00;;;;;;5051616;28;20234;-72
2022/04/10 04:21:03;;;;;;;3.67;2.63;;;4.70;1.00;;;;;;5051606;28;20206;-73
2022/04/10 04:23:30;;;;;;;4.37;2.53;;;4.60;1.00;;;;;;5051361;28;20206;-73
2022/04/10 04:25:57;;;;;;;5.40;3.30;;;4.70;1.00;;;;;;5051416;28;20682;-70
2022/04/10 04:28:24;;;;;;;4.37;3.23;;;4.70;1.00;;;;;;5051003;28;20611;-72
2022/04/10 04:30:52;;;;;;;5.37;2.53;;;4.70;1.00;;;;;;5051439;28;20244;-70
2022/04/10 04:33:19;;;;;;;3.90;2.90;;;4.60;1.00;;;;;;5050931;28;20211;-72
2022/04/10 04:35:46;;;;;;;6.40;3.37;;;4.40;1.00;;;;;;5051159;28;20227;-71
2022/04/10 04:38:13;;;;;;;7.07;3.17;;;4.60;1.00;;;;;;5050839;28;20260;-72
2022/04/10 04:40:40;;;;;;;5.57;3.10;;;4.50;1.00;;;;;;5051164;28;20264;-72
2022/04/10 04:43:08;;;;;;;3.60;2.50;;;4.70;1.00;;;;;;5050936;28;20207;-73
2022/04/10 04:45:36;;;;;;;4.07;3.13;;;4.70;1.00;;;;;;5050757;28;20207;-72
2022/04/10 04:48:05;;;;;;;4.03;3.03;;;4.70;1.00;;;;;;5051471;28;20203;-74
2022/04/10 04:50:32;;;;;;;3.90;2.97;;;4.70;1.00;;;;;;5051462;28;20202;-72
2022/04/10 04:52:59;;;;;;;3.60;2.90;;;4.70;1.00;;;;;;5050475;28;20245;-72
2022/04/10 04:55:26;;;;;;;4.37;2.60;;;4.40;1.00;;;;;;5050727;28;20686;-72
2022/04/10 04:57:53;;;;;;;3.53;2.67;;;4.30;1.00;;;;;;5050486;28;20276;-72
2022/04/10 05:00:20;;;;;;;3.03;2.70;;;4.20;1.00;;;;;;5058687;28;20210;-75
2022/04/10 05:02:47;;;;;;;3.77;3.07;;;4.20;1.00;;;;;;5072175;28;20202;-75
2022/04/10 05:05:16;;;;;;;5.47;2.73;;;4.30;1.00;;;;;;5056529;28;20206;-75
2022/04/10 05:07:43;;;;;;;3.43;2.87;;;4.50;1.00;;;;;;5070372;28;20263;-77
2022/04/10 05:10:10;;;;;;;5.60;3.17;;;4.70;1.00;;;;;;5070031;28;20210;-77
2022/04/10 05:12:37;;;;;;;5.20;3.23;;;4.90;1.00;;;;;;5070416;28;20689;-74
2022/04/10 05:15:07;;;;;;;3.67;2.33;;;5.00;1.00;;;;;;5070061;28;20625;-73
2022/04/10 05:17:35;;;;;;;6.00;3.67;;;4.90;1.00;;;;;;5070232;28;20249;-75
2022/04/10 05:20:02;;;;;;;4.73;2.17;;;4.80;1.00;;;;;;5070426;28;20260;-74
2022/04/10 05:22:30;;;;;;;2.93;2.53;;;4.90;1.00;;;;;;5070466;28;20209;-73
2022/04/10 05:24:57;;;;;;;3.17;2.63;;;4.90;1.00;;;;;;5070122;28;20743;-74
2022/04/10 05:27:25;;;;;;;4.43;2.50;;;5.00;1.00;;;;;;5069993;28;20701;-74
2022/04/10 05:29:52;;;;;;;4.57;2.30;;;4.90;1.00;;;;;;5069979;28;20677;-75
2022/04/10 05:32:19;;;;;;;4.63;2.57;;;5.00;1.00;;;;;;5069864;28;20202;-75
2022/04/10 05:34:46;;;;;;;3.03;2.70;;;5.00;1.00;;;;;;5070084;28;20198;-73
2022/04/10 05:37:13;;;;;;;4.20;2.53;;;4.90;1.00;;;;;;5067346;28;20676;-74
2022/04/10 05:39:42;;;;;;;3.90;3.33;;;4.90;1.00;;;;;;5057426;28;20237;-73
2022/04/10 05:42:09;;;;;;;4.03;3.63;;;5.00;1.00;;;;;;5069722;28;20202;-73
2022/04/10 05:44:37;;;;;;;8.70;5.33;;;5.00;1.00;;;;;;5057193;28;20203;-74
2022/04/10 05:47:04;;;;;;;6.10;3.70;;;5.00;1.00;;;;;;5070004;28;20202;-71
2022/04/10 05:49:32;;;;;;;4.97;2.93;;;4.80;1.00;;;;;;5070333;28;20206;-74
2022/04/10 05:51:58;;;;;;;5.73;2.67;;;4.80;1.00;;;;;;5070309;28;20217;-72
2022/04/10 05:54:25;;;;;;;4.63;2.93;;;4.70;1.00;;;;;;5069610;28;20677;-73
2022/04/10 05:56:55;;;;;;;3.80;3.50;;;4.70;1.00;;;;;;5070537;28;20226;-75
2022/04/10 05:59:22;;;;;;;3.33;2.73;;;4.70;1.00;;;;;;5069246;28;20220;-74
2022/04/10 06:01:49;;;;;;;4.70;2.33;;;4.90;1.00;;;;;;5069704;28;20199;-75
2022/04/10 06:04:16;;;;;;;5.77;2.27;;;5.00;1.00;;;;;;5070691;28;20233;-74
2022/04/10 06:06:43;;;;;;;3.60;2.27;;;5.10;1.00;;;;;;5073752;28;20202;-72
2022/04/10 06:09:10;;;;;;;3.83;2.00;;;5.10;1.00;;;;;;5073475;28;20269;-72
2022/04/10 06:11:37;;;;;;;5.17;2.13;;;5.40;1.00;;;;;;5073686;28;20213;-73
2022/04/10 06:14:06;;;;;;;5.07;2.53;;;5.60;1.00;;;;;;5070642;28;20268;-73
2022/04/10 06:16:33;;;;;;;4.00;1.90;;;5.50;1.00;;;;;;5073411;28;20653;-71
2022/04/10 06:19:00;;;;;;;4.63;3.10;;;5.40;1.00;;;;;;5074008;28;20198;-72
2022/04/10 06:21:27;;;;;;;5.77;2.93;;;5.40;1.00;;;;;;5069200;28;20615;-72
2022/04/10 06:23:54;;;;;;;11.17;2.70;;;5.50;1.00;;;;;;5067053;28;20259;-73
2022/04/10 06:26:21;;;;;;;3.00;2.37;;;5.70;1.00;;;;;;5072504;28;20334;-73
2022/04/10 06:28:48;;;;;;;4.77;2.90;;;5.70;1.00;;;;;;5066702;28;20202;-72
2022/04/10 06:31:16;;;;;;;5.87;2.93;;;5.80;1.00;;;;;;5073028;28;20205;-73
2022/04/10 06:33:43;;;;;;;5.93;2.03;;;6.00;1.00;;;;;;5063863;28;20211;-73
2022/04/10 06:36:11;;;;;;;4.90;2.90;;;6.00;1.00;;;;;;5053313;28;20226;-72
2022/04/10 06:38:38;;;;;;;9.37;5.13;;;5.90;1.00;;;;;;5053460;28;20264;-71
2022/04/10 06:41:05;;;;;;;9.07;5.97;;;6.00;1.00;;;;;;5053387;28;20199;-71
2022/04/10 06:43:32;;;;;;;12.07;6.77;;;6.00;1.00;;;;;;5070349;28;20202;-72
2022/04/10 06:45:59;;;;;;;15.57;8.53;;;6.10;1.00;;;;;;5073726;28;20214;-75
2022/04/10 06:48:27;;;;;;;5.30;2.70;;;6.00;1.00;;;;;;5071556;28;20597;-72
2022/04/10 06:50:54;;;;;;;6.37;2.20;;;6.00;1.00;;;;;;5073116;28;20665;-72
2022/04/10 06:53:21;;;;;;;3.23;2.10;;;6.10;1.00;;;;;;5072925;28;20661;-70
2022/04/10 06:55:48;;;;;;;2.40;2.20;;;6.30;1.00;;;;;;5072850;28;20206;-70
2022/04/10 06:58:16;;;;;;;4.03;2.73;;;6.40;1.00;;;;;;5072213;28;20221;-70
2022/04/10 07:00:43;;;;;;;5.97;3.23;;;6.50;1.00;;;;;;5073296;28;20214;-73
2022/04/10 07:03:10;;;;;;;10.97;5.70;;;6.50;1.00;;;;;;5070564;28;20214;-69
2022/04/10 07:05:40;;;;;;;11.83;6.67;;;6.50;1.00;;;;;;5053819;28;20272;-69
2022/04/10 07:08:07;;;;;;;8.57;5.13;;;6.50;1.00;;;;;;5052582;28;20195;-72
2022/04/10 07:10:36;;;;;;;13.60;7.30;;;6.60;1.00;;;;;;5060002;28;20343;-72
2022/04/10 07:13:03;;;;;;;8.10;4.40;;;6.60;1.00;;;;;;5073418;28;20198;-75
2022/04/10 07:15:30;;;;;;;9.07;4.77;;;6.50;1.00;;;;;;5071828;28;20253;-69
2022/04/10 07:17:58;;;;;;;8.67;6.03;;;6.80;1.00;;;;;;5072856;28;20234;-75
2022/04/10 07:20:25;;;;;;;6.00;2.90;;;7.00;1.00;;;;;;5071163;28;20229;-72
2022/04/10 07:25:38;;;;;;;4.80;3.00;;;7.20;1.00;;;;;;5072745;28;20209;-73
2022/04/10 07:28:05;;;;;;;9.80;5.10;;;7.30;1.00;;;;;;5072751;28;20210;-69
2022/04/10 07:30:32;;;;;;;5.20;3.20;;;7.50;1.00;;;;;;5072808;28;20214;-73
2022/04/10 07:33:00;;;;;;;3.00;2.70;;;7.70;1.00;;;;;;5072830;28;20206;-72
2022/04/10 07:35:27;;;;;;;3.37;2.73;;;7.50;1.00;;;;;;5072186;28;20296;-70
2022/04/10 07:37:55;;;;;;;4.10;1.97;;;7.60;1.00;;;;;;5072599;28;20238;-71
2022/04/10 07:40:22;;;;;;;4.13;2.07;;;7.90;1.00;;;;;;5071790;28;20198;-69
2022/04/10 07:42:49;;;;;;;10.27;2.50;;;8.10;1.00;;;;;;5072394;28;20206;-69
2022/04/10 07:47:57;;;;;;;3.70;2.77;;;8.50;1.00;;;;;;5072103;28;20202;-70
2022/04/10 07:50:24;;;;;;;3.90;3.33;;;8.80;1.00;;;;;;5072035;28;20590;-70
2022/04/10 07:52:51;;;;;;;4.10;2.33;;;9.30;1.00;;;;;;5072020;28;20618;-69
2022/04/10 07:55:20;;;;;;;3.00;2.20;;;9.30;1.00;;;;;;5068774;28;20207;-68
2022/04/10 07:57:47;;;;;;;3.30;2.37;;;9.10;1.00;;;;;;5071915;28;20240;-69
2022/04/10 08:00:15;;;;;;;2.00;1.60;;;9.40;1.00;;;;;;5071707;28;20202;-68
2022/04/10 08:02:46;;;;;;;3.37;2.23;;;9.60;1.00;;;;;;5071937;28;20301;-68
2022/04/10 08:05:13;;;;;;;2.77;2.00;;;9.80;1.00;;;;;;5071429;28;20224;-68
2022/04/10 08:07:40;;;;;;;3.13;1.20;;;10.10;1.00;;;;;;5071738;28;20214;-69
2022/04/10 08:10:08;;;;;;;5.27;1.80;;;10.10;1.00;;;;;;5071467;28;20207;-70
2022/04/10 08:12:36;;;;;;;1.10;1.03;;;10.20;1.00;;;;;;5070289;28;20213;-70
2022/04/10 08:15:03;;;;;;;4.77;1.60;;;10.30;1.00;;;;;;5071534;28;20214;-69
2022/04/10 08:17:30;;;;;;;2.43;1.53;;;10.60;1.00;;;;;;5071190;28;20694;-69
2022/04/10 08:19:57;;;;;;;2.20;1.10;;;10.90;1.00;;;;;;5071884;28;20202;-69
2022/04/10 08:22:25;;;;;;;3.77;1.60;;;10.90;1.00;;;;;;5071164;28;20201;-69
2022/04/10 08:24:52;;;;;;;2.53;1.47;;;11.00;1.00;;;;;;5071398;28;20210;-69
2022/04/10 08:27:19;;;;;;;3.50;1.50;;;11.20;1.00;;;;;;5069986;28;20642;-69
2022/04/10 08:29:48;;;;;;;2.20;2.00;;;11.40;1.00;;;;;;5071041;28;20259;-69
2022/04/10 08:32:15;;;;;;;2.77;1.63;;;11.50;1.00;;;;;;5071032;28;20263;-69
2022/04/10 08:34:42;;;;;;;3.10;1.23;;;11.60;1.00;;;;;;5071384;28;20206;-70
2022/04/10 08:37:08;;;;;;;2.57;0.87;;;12.00;1.00;;;;;;5069927;28;20431;-69
2022/04/10 08:39:36;;;;;;;1.30;0.90;;;12.20;1.00;;;;;;5070676;28;20214;-70
2022/04/10 08:42:05;;;;;;;5.07;1.57;;;12.30;1.00;;;;;;5071214;28;20560;-69
2022/04/10 08:44:33;;;;;;;3.30;1.50;;;12.80;1.00;;;;;;5071166;28;20232;-70
2022/04/10 08:47:02;;;;;;;3.40;1.33;;;12.90;1.00;;;;;;5069292;28;20253;-69
2022/04/10 08:49:33;;;;;;;1.10;0.70;;;13.40;1.00;;;;;;5071107;28;20198;-71
2022/04/10 08:52:00;;;;;;;2.77;0.80;;;13.70;1.00;;;;;;5071214;28;20244;-73
2022/04/10 08:54:28;;;;;;;1.73;0.97;;;13.80;1.00;;;;;;5070554;28;20205;-73
2022/04/10 08:56:57;;;;;;;3.47;1.53;;;14.00;1.00;;;;;;5070761;28;20242;-72
2022/04/10 08:59:24;;;;;;;1.77;0.93;;;13.90;1.00;;;;;;5070570;28;20209;-72
2022/04/10 09:01:54;;;;;;;1.37;0.90;;;13.70;1.00;;;;;;5071270;28;20203;-72
2022/04/10 09:04:23;;;;;;;4.27;1.10;;;14.00;1.00;;;;;;5070427;28;20692;-73
2022/04/10 09:07:02;;;;;;;2.85;0.93;;;14.20;1.00;;;;;;5070792;28;20660;-72
2022/04/10 09:09:30;;;;;;;2.63;0.80;;;14.10;1.00;;;;;;5070579;28;20245;-73
2022/04/10 09:11:59;;;;;;;2.43;0.80;;;14.10;1.00;;;;;;5070880;28;20662;-73
2022/04/10 09:14:27;;;;;;;1.67;1.25;;;14.10;1.00;;;;;;5070553;28;20690;-70
2022/04/10 09:17:11;;;;;;;2.33;0.93;;;14.30;1.00;;;;;;5070888;28;20226;-71
2022/04/10 09:19:42;;;;;;;3.05;0.73;;;14.30;1.00;;;;;;5070649;28;20198;-72
2022/04/10 09:22:25;;;;;;;3.97;1.48;;;14.20;1.00;;;;;;5070372;28;20202;-72
2022/04/10 09:25:04;;;;;;;2.00;1.17;;;14.60;1.00;;;;;;5070672;28;20674;-71
2022/04/10 09:27:31;;;;;;;2.35;0.85;;;14.50;1.00;;;;;;5070998;28;20202;-71
2022/04/10 09:29:58;;;;;;;3.15;0.73;;;14.50;1.00;;;;;;5070696;28;20209;-72
2022/04/10 09:32:41;;;;;;;2.28;1.23;;;14.90;1.00;;;;;;5070236;28;20209;-71
2022/04/10 09:35:10;;;;;;;3.85;1.10;;;14.90;1.00;;;;;;5069956;28;20198;-71
2022/04/10 09:37:46;;;;;;;1.40;0.70;;;15.10;1.00;;;;;;5070653;28;20287;-70
2022/04/10 09:40:30;;;;;;;7.70;1.25;;;16.00;1.00;;;;;;5072878;28;20730;-70
2022/04/10 09:43:05;;;;;;;2.00;1.20;;;17.70;1.00;;;;;;5074477;28;20605;-69
2022/04/10 09:45:34;;;;;;;3.42;1.45;;;17.50;1.00;;;;;;5074963;28;20288;-70
2022/04/10 09:48:27;;;;;;;4.65;1.45;;;17.30;1.00;;;;;;5074831;28;20602;-70
2022/04/10 09:50:59;;;;;;;5.07;1.00;;;16.90;1.00;;;;;;5059731;28;20292;-69
2022/04/10 09:53:27;;;;;;;3.25;1.50;;;17.00;1.00;;;;;;5074134;28;20210;-70
2022/04/10 09:55:55;;;;;;;1.23;0.65;;;17.70;1.00;;;;;;5071719;28;20212;-70
2022/04/10 09:58:22;;;;;;;0.98;0.88;;;18.70;1.00;;;;;;5053844;28;20237;-71
2022/04/10 10:00:54;;;;;;;2.33;1.35;;;19.00;1.00;;;;;;5054384;28;20253;-71
2022/04/10 10:03:22;;;;;;;2.10;0.90;;;19.00;1.00;;;;;;5053642;28;20576;-70
2022/04/10 10:05:50;;;;;;;1.80;0.95;;;18.60;1.00;;;;;;5054006;28;20732;-70
2022/04/10 10:08:18;;;;;;;3.65;1.77;;;18.80;1.00;;;;;;5053741;28;20211;-71
2022/04/10 10:10:46;;;;;;;1.35;0.80;;;18.40;1.00;;;;;;5053977;28;20229;-71
2022/04/10 10:13:13;;;;;;;1.95;0.98;;;18.20;1.00;;;;;;5053716;28;20723;-71
2022/04/10 10:15:41;;;;;;;1.45;1.17;;;18.00;1.00;;;;;;5053776;28;20264;-71
2022/04/10 10:18:10;;;;;;;1.98;0.93;;;18.10;1.00;;;;;;5053131;28;20286;-70
2022/04/10 10:20:38;;;;;;;2.83;0.80;;;18.70;1.00;;;;;;5053745;28;20207;-70
2022/04/10 10:23:09;;;;;;;0.70;0.70;;;19.90;1.00;;;;;;5053974;28;20203;-71
2022/04/10 10:25:42;;;;;;;1.30;0.60;;;19.60;1.00;;;;;;5053872;28;20203;-71
2022/04/10 10:28:41;;;;;;;1.63;0.90;;;21.30;1.00;;;;;;5053357;28;20265;-72
2022/04/10 10:31:33;;;;;;;0.82;0.68;;;18.90;1.00;;;;;;5053154;28;20203;-69
2022/04/10 10:34:05;;;;;;;1.27;1.00;;;18.40;1.00;;;;;;5053809;28;20586;-71
2022/04/10 10:36:33;;;;;;;1.50;1.00;;;17.00;1.00;;;;;;5054043;28;20199;-69
2022/04/10 10:39:00;;;;;;;3.08;1.10;;;16.90;1.00;;;;;;5053812;28;20624;-70
2022/04/10 10:41:37;;;;;;;2.63;1.02;;;16.90;1.00;;;;;;5053166;28;20207;-70
2022/04/10 10:44:41;;;;;;;1.15;0.90;;;16.40;1.00;;;;;;5053720;28;20210;-70
2022/04/10 10:47:17;;;;;;;0.80;0.73;;;16.50;1.00;;;;;;4991460;28;20259;-70
2022/04/10 10:49:45;;;;;;;1.77;0.70;;;16.60;1.00;;;;;;5045717;28;20264;-71
2022/04/10 10:52:14;;;;;;;2.38;1.00;;;16.70;1.00;;;;;;5051803;28;20207;-72
2022/04/10 10:54:45;;;;;;;2.28;0.73;;;16.70;1.00;;;;;;5053389;28;20303;-70
2022/04/10 10:57:32;;;;;;;3.17;0.80;;;16.90;1.00;;;;;;5052783;28;20242;-71
2022/04/10 11:00:12;;;;;;;1.17;1.00;;;17.00;1.00;;;;;;5053157;28;20678;-71
2022/04/10 11:02:40;;;;;;;2.25;1.02;;;16.90;1.00;;;;;;5052686;28;20203;-71
2022/04/10 11:05:08;;;;;;;5.90;3.70;;;17.30;1.00;;;;;;5052621;28;20253;-71
2022/04/10 11:07:39;;;;;;;9.50;6.00;;;17.30;1.00;;;;;;5053296;28;20256;-71
2022/04/10 11:10:09;;;;;;;2.63;1.25;;;17.40;1.00;;;;;;5052643;28;20693;-70
2022/04/10 11:12:50;;;;;;;1.63;0.90;;;17.20;1.00;;;;;;5053439;28;20203;-72
2022/04/10 11:15:19;;;;;;;2.88;1.15;;;16.60;1.00;;;;;;5052429;28;20199;-71
2022/04/10 11:17:47;;;;;;;3.33;2.15;;;16.90;1.00;;;;;;5052556;28;20737;-70
2022/04/10 11:20:15;;;;;;;1.75;1.08;;;17.20;1.00;;;;;;5052397;28;20261;-71
2022/04/10 11:22:48;;;;;;;2.60;1.50;;;16.80;1.00;;;;;;5052724;28;20213;-70
2022/04/10 11:25:18;;;;;;;1.38;0.80;;;16.90;1.00;;;;;;5052389;28;20206;-70
2022/04/10 11:27:57;;;;;;;2.20;0.80;;;17.00;1.00;;;;;;5056459;28;20688;-70
2022/04/10 11:30:25;;;;;;;3.33;1.00;;;17.10;1.00;;;;;;5070576;28;20214;-70
2022/04/10 11:32:54;;;;;;;2.05;1.13;;;17.20;1.00;;;;;;5071754;28;20276;-70
2022/04/10 11:35:24;;;;;;;2.53;0.85;;;17.50;1.00;;;;;;5072387;28;20202;-71
2022/04/10 11:37:53;;;;;;;1.55;0.65;;;17.50;1.00;;;;;;5072192;28;20283;-70
2022/04/10 11:40:22;;;;;;;11.27;7.60;;;17.30;1.00;;;;;;5071245;28;20686;-71
2022/04/10 11:42:51;;;;;;;3.10;0.85;;;17.30;1.00;;;;;;5072454;28;20206;-70
2022/04/10 11:45:20;;;;;;;2.63;0.98;;;17.40;1.00;;;;;;5071792;28;20214;-71
2022/04/10 11:47:48;;;;;;;1.58;0.95;;;17.20;1.00;;;;;;5072293;28;20622;-71
2022/04/10 11:50:16;;;;;;;5.18;4.68;;;17.40;1.00;;;;;;5071977;28;20198;-70
2022/04/10 11:52:57;;;;;;;2.63;1.75;;;17.80;1.00;;;;;;5072064;28;20214;-71
2022/04/10 11:55:33;;;;;;;1.83;1.20;;;17.90;1.00;;;;;;5071815;28;20213;-70
2022/04/10 11:58:01;;;;;;;1.33;0.77;;;17.70;1.00;;;;;;5069288;28;20305;-71
2022/04/10 12:00:29;;;;;;;6.30;0.80;;;17.90;1.00;;;;;;5071567;28;20581;-69
2022/04/10 12:02:56;;;;;;;2.45;0.90;;;18.00;1.00;;;;;;5071852;28;20206;-69
2022/04/10 12:05:29;;;;;;;2.75;0.60;;;18.10;1.00;;;;;;5071365;28;20731;-74
2022/04/10 12:08:00;;;;;;;3.40;1.02;;;17.70;1.00;;;;;;5071857;28;20206;-71
2022/04/10 12:10:27;;;;;;;3.88;2.22;;;17.70;1.00;;;;;;5071446;28;20248;-71
2022/04/10 12:12:57;;;;;;;9.82;5.93;;;17.90;1.00;;;;;;5068851;28;20302;-73
2022/04/10 12:15:24;;;;;;;5.18;4.10;;;17.90;1.00;;;;;;5064149;28;20297;-69
2022/04/10 12:18:07;;;;;;;3.80;2.00;;;17.80;1.00;;;;;;5068620;28;20276;-71
2022/04/10 12:20:35;;;;;;;27.70;16.02;;;18.00;1.00;;;;;;5069474;28;20223;-72
2022/04/10 12:23:02;;;;;;;18.02;9.35;;;18.20;1.00;;;;;;5065070;28;20264;-72
2022/04/10 12:25:30;;;;;;;16.65;8.15;;;18.40;1.00;;;;;;5069126;28;20212;-71
2022/04/10 12:27:57;;;;;;;2.67;1.20;;;18.50;1.00;;;;;;5070726;28;20271;-73
2022/04/10 12:30:24;;;;;;;12.55;7.35;;;17.90;1.00;;;;;;5067247;28;20969;-74
2022/04/10 12:32:53;;;;;;;9.63;6.57;;;18.00;1.00;;;;;;5066940;28;20285;-71
2022/04/10 12:35:20;;;;;;;8.48;4.80;;;18.30;1.00;;;;;;5070495;28;20251;-73
2022/04/10 12:37:48;;;;;;;18.83;12.52;;;18.30;1.00;;;;;;5067424;28;20210;-69
2022/04/10 12:40:26;;;;;;;2.72;1.55;;;18.30;1.00;;;;;;5070175;28;20798;-70
2022/04/10 12:42:58;;;;;;;3.00;1.17;;;18.40;1.00;;;;;;5060118;28;20211;-72
2022/04/10 12:45:26;;;;;;;2.00;1.60;;;18.60;1.00;;;;;;5050611;28;20248;-73
2022/04/10 12:47:54;;;;;;;1.92;1.45;;;18.90;1.00;;;;;;5070094;28;20221;-70
2022/04/10 12:50:24;;;;;;;0.85;0.73;;;19.10;1.00;;;;;;5070951;28;20202;-71
2022/04/10 12:52:52;;;;;;;1.55;0.80;;;19.20;1.00;;;;;;5071234;28;20284;-71
2022/04/10 12:55:21;;;;;;;1.83;1.17;;;19.30;1.00;;;;;;5070876;28;20206;-69
2022/04/10 12:58:00;;;;;;;3.13;0.70;;;19.10;1.00;;;;;;5070611;28;20252;-70
2022/04/10 13:00:31;;;;;;;1.25;0.98;;;18.90;1.00;;;;;;5070567;28;20206;-68
2022/04/10 13:03:18;;;;;;;1.73;0.85;;;19.00;1.00;;;;;;5070687;28;20293;-69
2022/04/10 13:05:55;;;;;;;1.08;0.93;;;18.90;1.00;;;;;;5070925;28;20206;-71
2022/04/10 13:08:24;;;;;;;1.83;0.82;;;18.90;1.00;;;;;;5069671;28;20242;-69
2022/04/10 13:10:51;;;;;;;1.60;0.60;;;18.80;1.00;;;;;;5070658;28;20206;-69
2022/04/10 13:13:19;;;;;;;1.98;0.95;;;18.90;1.00;;;;;;5067962;28;20716;-70
2022/04/10 13:15:46;;;;;;;3.17;1.17;;;18.90;1.00;;;;;;5069315;28;20202;-70
2022/04/10 13:18:14;;;;;;;1.40;0.90;;;19.20;1.00;;;;;;5070435;28;20275;-74